AirNav   BOSE ProFlight Aviation Headset
 
 1410 users online  

69K Wamego Municipal Airport
Wamego, Kansas, USA

GOING TO WAMEGO?


FAA INFORMATION EFFECTIVE 24 MAY 2018

Location

FAA Identifier: 69K
Lat/Long: 39-11-52.2900N / 096-15-32.1850W
39-11.871500N / 096-15.536417W
39.1978583 / -96.2589403
(estimated)
Elevation: 966 ft. / 294 m (estimated)
Variation: 06E (1985)
From city: 3 miles E of WAMEGO, KS
Time zone: UTC -5 (UTC -6 during Standard Time)
Zip code: 66547

Airport Operations

Airport use: Open to the public
Activation date: 07/1968
Control tower: no
ARTCC: KANSAS CITY CENTER
FSS: WICHITA FLIGHT SERVICE STATION
NOTAMs facility: ICT (NOTAM-D service available)
Attendance: UNATNDD
Wind indicator: yes
Segmented circle: no
Lights: ACTVT LIRL RWY 18/36 - CTAF.
Beacon: white-green (lighted land airport)
Operates sunset to sunrise.

Airport Communications

CTAF: 122.9
WX ASOS at MHK (20 nm W): 119.075 (785-537-1035)

Nearby radio navigation aids

VOR radial/distance  VOR name  Freq  Var
MHKr077/19.3MANHATTAN VOR/DME110.2004E
FRIr058/(31.2)FORT RILEY VOR109.4006E
TOPr271/33.2TOPEKA VORTAC117.8005E

 
NDB name  Hdg/Dist  Freq  Var  ID
CAVALRY062/27.031406ECVY -.-. ...- -.--
HERINGTON034/39.840706EHRU .... .-. ..-

Airport Services

Fuel available: 100LL
AVBL 24 HRS WITH CREDIT CARD.
Parking: tiedowns
Airframe service: NONE
Powerplant service: NONE
Bottled oxygen: NONE
Bulk oxygen: NONE

Runway Information

Runway 18/36

Dimensions: 3184 x 45 ft. / 970 x 14 m
Surface: asphalt, in good condition
Runway edge lights: low intensity
NSTD LIRL; RWY LGTS LCTD 13 FT OUTSIDE RWY EDGE. RWY END LGTS AER 36 LCTD 14 FT N OF THLD. RWY END LGTS AER 18 LCTD 134 FT N OF DSPLCD THLD BAR.
RUNWAY 18  RUNWAY 36
Latitude: 39-12.133833N39-11.609167N
Longitude: 096-15.534167W096-15.538667W
Elevation: 964.0 ft.964.0 ft.
Traffic pattern: leftleft
Displaced threshold: 176 ft.no
Markings: basic, in good conditionbasic, in good condition
Obstructions: 15 ft. road, 200 ft. from runway, 96 ft. right of centerline
+15 FT COUNTY RD & +15 ARPT ACCESS RD.
15 ft. road, 200 ft. from runway, 96 ft. left of centerline
+15 FT COUNTY RD.

Airport Ownership and Management from official FAA records

Ownership: Publicly-owned
Owner: CITY OF WAMEGO
P.O. BOX 86
WAMEGO, KS 66547-0086
Phone 785-456-9119
STREET ADDRESS: 430 LINCOLN
Manager: KEN STEIN
430 LINCOLN
WAMEGO, KS 66547-0086
Phone 785-456-9119
24 HR PHONE 456-9553 (POLICE DEPT).

Airport Operational Statistics

Aircraft based on the field: 11
Single engine airplanes: 11
    
Aircraft operations: avg 43/week *
44% transient general aviation
44% local general aviation
11% military
* for 12-month period ending 31 July 2017

Additional Remarks

ULTRALIGHT ACTIVITY ON & INVOF ARPT.
COUNTY ROAD 75 FT WEST OF RY WITHIN SFC AREA.

Instrument Procedures

There are no published instrument procedures at 69K.

Some nearby airports with instrument procedures:

KMHK - Manhattan Regional Airport (20 nm W)
KFRI - Marshall Army Airfield (25 nm W)
3JC - Freeman Field Airport (29 nm W)
KTOP - Philip Billard Municipal Airport (31 nm E)
KFOE - Topeka Regional Airport (31 nm SE)
 
Loc | Ops | Rwys | IFR | FBO | Links
Com | Nav | Svcs | Stats | Notes

Kansas City Aviation Department
 
Area around 69K (Wamego Municipal Airport)
 
Road maps at: MapQuest Bing Google
 
Aerial photo
WARNING: Photo may not be current or correct
Aerial photo of 69K (Wamego Municipal Airport)
Photo by Kendall D. Gott
Photo taken 20-Jan-2014
looking northwest.

Do you have a better or more recent aerial photo of Wamego Municipal Airport that you would like to share? If so, please send us your photo.

 
Sectional chart

 
Airport distance calculator
Flying to Wamego Municipal Airport? Find the distance to fly.

From to 69K

Sunrise and sunset
Times for 18-Jun-2018
 Local
(UTC-5)
 Zulu
(UTC)
Morning civil twilight05:2710:27
Sunrise05:5910:59
Sunset20:5301:53
Evening civil twilight21:2502:25

Current date and time
Zulu (UTC)  18-Jun-2018 21:40:34
Local (UTC-5)  18-Jun-2018 16:40:34
 
METAR
KMHK 
20nm W 
182052Z 17018G28KT 10SM FEW060 36/22 A2986 RMK AO2 PK WND 17032/2023 SLP098 T03560217 58024
KFRI 
26nm SW 
182056Z AUTO 19018G24KT 10SM FEW060 36/20 A2985 RMK AO2 PK WND 17027/40 SLP094 T03580204 57026
KTOP 
30nm E 
182053Z 17013G24KT 10SM CLR 36/22 A2990 RMK AO2 PK WND 16026/2039 SLP115 T03560222 58024
KFOE 
33nm SE 
182053Z 17016G24KT 10SM SCT045 34/22 A2991 RMK AO2 PK WND 16026/2043 SLP117 T03390222 58025
TAF
KMHK 
20nm W 
181723Z 1818/1918 19012G21KT P6SM SCT040 FM182000 18013KT P6SM VCTS SCT045CB FM190200 17008KT P6SM FEW040 SCT250
NOTAMs
Click for the latest NOTAMs
NOTAMs are issued by the DoD/FAA and will open in a separate window not controlled by AirNav.

 

 
 

Would you like to see your business listed on this page?

 If your business provides an interesting product or service to pilots, flight crews, aircraft, or users of the Wamego Municipal Airport, you should consider listing it here.  To start the listing process, click on the button below
 
Add a business
 

Other Pages about Wamego Municipal Airport

Update a link
 
Copyright © AirNav, LLC. All rights reserved. Privacy Policy  Contact